Time;durP1;ratioP1;P1;durP2;ratioP2;P2;SDS_P1;SDS_P2;PMS_P1;PMS_P2;Temp;Humidity;BMP_temperature;BMP_pressure;BME280_temperature;BME280_humidity;BME280_pressure;Samples;Min_cycle;Max_cycle;Signal;HPM_P1;HPM_P2
2023/03/26 00:01:00;;;;;;;70.97;63.03;;;9.40;99.90;;;;;;5293007;27;20554;-67
2023/03/26 00:03:33;;;;;;;72.30;64.57;;;9.50;99.90;;;;;;5299168;28;20456;-66
2023/03/26 00:06:11;;;;;;;69.15;62.25;;;9.70;99.90;;;;;;5306664;28;20076;-66
2023/03/26 00:08:44;;;;;;;69.68;62.10;;;9.60;99.90;;;;;;5306349;28;20092;-67
2023/03/26 00:11:17;;;;;;;69.35;62.00;;;9.50;99.90;;;;;;5303723;28;20347;-66
2023/03/26 00:13:48;;;;;;;69.45;62.28;;;9.70;99.90;;;;;;5298137;28;20030;-66
2023/03/26 00:16:20;;;;;;;74.10;66.40;;;9.30;99.90;;;;;;5285405;28;20039;-66
2023/03/26 00:18:52;;;;;;;68.07;60.85;;;9.90;99.90;;;;;;5285179;28;20069;-66
2023/03/26 00:21:35;;;;;;;69.82;62.70;;;9.90;99.90;;;;;;5284956;28;20120;-67
2023/03/26 00:24:16;;;;;;;65.45;58.42;;;9.60;99.90;;;;;;5285109;28;20039;-67
2023/03/26 00:26:52;;;;;;;72.50;64.85;;;9.80;99.90;;;;;;5255637;28;20071;-66
2023/03/26 00:29:23;;;;;;;63.42;57.00;;;9.90;99.90;;;;;;5306076;27;20038;-65
2023/03/26 00:31:54;;;;;;;68.50;61.50;;;9.90;99.90;;;;;;5285481;28;20514;-66
2023/03/26 00:34:25;;;;;;;64.30;57.72;;;9.60;99.90;;;;;;5291993;28;20019;-66
2023/03/26 00:37:01;;;;;;;64.03;57.17;;;9.70;99.90;;;;;;5292163;28;20032;-65
2023/03/26 00:39:34;;;;;;;67.10;60.00;;;9.70;99.90;;;;;;5267546;28;20443;-65
2023/03/26 00:42:05;;;;;;;70.55;63.50;;;9.80;99.90;;;;;;5270839;28;20043;-66
2023/03/26 00:44:36;;;;;;;69.30;62.17;;;10.00;99.90;;;;;;5270733;28;20143;-66
2023/03/26 00:47:07;;;;;;;69.85;58.97;;;10.10;99.90;;;;;;5270950;28;20119;-65
2023/03/26 00:49:38;;;;;;;63.70;56.75;;;10.20;99.90;;;;;;5270736;28;20104;-65
2023/03/26 00:52:09;;;;;;;69.07;61.90;;;10.20;99.90;;;;;;5276677;28;20027;-65
2023/03/26 00:54:40;;;;;;;64.63;57.55;;;10.10;99.90;;;;;;5284131;28;20037;-65
2023/03/26 00:57:12;;;;;;;63.15;56.35;;;10.30;99.90;;;;;;5276723;28;20032;-66
2023/03/26 00:59:42;;;;;;;61.97;55.33;;;10.00;99.90;;;;;;5270605;28;20036;-66
2023/03/26 01:02:17;;;;;;;60.55;54.38;;;9.80;99.90;;;;;;5270396;28;20112;-66
2023/03/26 01:04:56;;;;;;;61.72;55.30;;;10.00;99.90;;;;;;5270352;28;20028;-66
2023/03/26 01:07:30;;;;;;;67.63;60.58;;;10.00;99.90;;;;;;5280762;28;20103;-66
2023/03/26 01:10:01;;;;;;;68.60;61.70;;;10.10;99.90;;;;;;5274383;28;20028;-66
2023/03/26 01:12:32;;;;;;;64.45;57.85;;;10.30;99.90;;;;;;5270225;28;20028;-66
2023/03/26 01:15:03;;;;;;;65.60;58.85;;;9.90;99.90;;;;;;5270092;28;20043;-66
2023/03/26 01:17:34;;;;;;;66.70;59.67;;;9.80;99.90;;;;;;5270243;28;20035;-65
2023/03/26 01:20:25;;;;;;;64.72;57.92;;;9.90;99.90;;;;;;5281053;28;20428;-66
2023/03/26 01:23:04;;;;;;;68.22;61.22;;;10.10;99.90;;;;;;5269871;28;20024;-64
2023/03/26 01:25:41;;;;;;;70.78;63.47;;;9.60;99.90;;;;;;5269999;28;20016;-66
2023/03/26 01:28:16;;;;;;;70.53;63.40;;;9.60;99.90;;;;;;5269960;28;20031;-65
2023/03/26 01:31:20;;;;;;;68.05;60.95;;;10.00;99.90;;;;;;5269623;28;20654;-66
2023/03/26 01:34:06;;;;;;;67.93;60.78;;;9.60;99.90;;;;;;5272542;28;20113;-66
2023/03/26 01:37:03;;;;;;;66.45;59.45;;;9.70;99.90;;;;;;5289157;28;20028;-65
2023/03/26 01:39:56;;;;;;;71.55;64.05;;;9.70;99.90;;;;;;5290869;28;20061;-65
2023/03/26 01:42:57;;;;;;;64.07;57.63;;;9.60;99.90;;;;;;5290526;28;20110;-66
2023/03/26 01:45:33;;;;;;;74.32;66.10;;;9.70;99.90;;;;;;5250027;28;20035;-65
2023/03/26 01:48:06;;;;;;;73.45;65.35;;;10.00;99.90;;;;;;5280626;28;20471;-66
2023/03/26 01:50:36;;;;;;;95.32;76.85;;;9.90;99.90;;;;;;5269494;28;20134;-66
2023/03/26 01:53:10;;;;;;;78.47;67.78;;;9.80;99.90;;;;;;5269275;28;20495;-65
2023/03/26 01:55:54;;;;;;;77.88;67.70;;;10.00;99.90;;;;;;5269463;28;20065;-66
2023/03/26 01:58:40;;;;;;;74.45;66.50;;;10.10;99.90;;;;;;5269344;28;20024;-67
2023/03/26 02:01:18;;;;;;;78.07;68.85;;;10.30;99.90;;;;;;5272021;28;20035;-66
2023/03/26 02:04:17;;;;;;;74.05;66.47;;;10.30;99.90;;;;;;5281303;28;20028;-66
2023/03/26 02:07:13;;;;;;;71.88;64.53;;;10.20;99.90;;;;;;5246856;28;20035;-65
2023/03/26 02:09:49;;;;;;;69.70;62.25;;;10.30;99.90;;;;;;5290089;28;20032;-66
2023/03/26 02:12:21;;;;;;;75.40;67.78;;;10.20;99.90;;;;;;5290134;28;20026;-66
2023/03/26 02:14:52;;;;;;;77.95;69.80;;;10.20;99.90;;;;;;5283828;28;20367;-66
2023/03/26 02:17:23;;;;;;;79.80;71.55;;;10.00;99.90;;;;;;5268875;28;20008;-65
2023/03/26 02:19:55;;;;;;;76.97;68.55;;;10.50;99.90;;;;;;5268917;28;20032;-66
2023/03/26 02:22:28;;;;;;;75.65;66.63;;;10.10;99.90;;;;;;5268639;28;20033;-65
2023/03/26 02:24:59;;;;;;;77.07;69.15;;;10.30;99.90;;;;;;5268660;28;20030;-66
2023/03/26 02:27:30;;;;;;;73.03;65.22;;;10.40;99.90;;;;;;5271312;28;20386;-66
2023/03/26 02:30:03;;;;;;;77.30;68.13;;;10.10;99.90;;;;;;5280557;28;20140;-66
2023/03/26 02:32:35;;;;;;;78.20;69.78;;;9.80;99.90;;;;;;5288038;28;20502;-66
2023/03/26 02:35:06;;;;;;;72.68;64.78;;;9.90;99.90;;;;;;5278056;28;20107;-66
2023/03/26 02:37:37;;;;;;;74.13;66.35;;;9.90;99.90;;;;;;5289540;28;20044;-66
2023/03/26 02:40:10;;;;;;;78.13;69.85;;;9.80;99.90;;;;;;5289442;28;20036;-66
2023/03/26 02:42:41;;;;;;;70.75;63.47;;;9.90;99.90;;;;;;5278314;28;20784;-65
2023/03/26 02:45:12;;;;;;;72.30;64.38;;;9.70;99.90;;;;;;5285427;28;20027;-66
2023/03/26 02:47:44;;;;;;;74.35;65.13;;;10.00;99.90;;;;;;5289369;28;20031;-66
2023/03/26 02:50:15;;;;;;;73.97;65.82;;;10.10;99.90;;;;;;5289369;28;20457;-64
2023/03/26 02:52:48;;;;;;;74.75;66.80;;;9.80;99.90;;;;;;5289058;28;20134;-66
2023/03/26 02:55:19;;;;;;;72.22;64.70;;;9.90;99.90;;;;;;5284608;28;20026;-66
2023/03/26 02:57:50;;;;;;;77.20;69.05;;;10.10;99.90;;;;;;5280587;28;20122;-65
2023/03/26 03:00:21;;;;;;;81.65;73.13;;;9.90;99.90;;;;;;5289138;28;20043;-66
2023/03/26 03:02:52;;;;;;;78.10;70.25;;;9.90;99.90;;;;;;5289043;28;20110;-65
2023/03/26 03:05:30;;;;;;;85.22;76.43;;;9.70;99.90;;;;;;5289076;28;20098;-66
2023/03/26 03:08:02;;;;;;;80.22;70.72;;;9.80;99.90;;;;;;5284801;28;20081;-66
2023/03/26 03:10:33;;;;;;;79.18;70.72;;;9.90;99.90;;;;;;5276997;28;20032;-66
2023/03/26 03:13:06;;;;;;;80.38;71.65;;;10.30;99.90;;;;;;5268067;28;20028;-66
2023/03/26 03:15:37;;;;;;;78.00;69.78;;;10.30;99.90;;;;;;5268528;28;20514;-65
2023/03/26 03:18:08;;;;;;;77.47;68.57;;;9.80;99.90;;;;;;5268172;28;20036;-66
2023/03/26 03:20:39;;;;;;;77.78;64.50;;;10.10;99.90;;;;;;5268698;28;20417;-66
2023/03/26 03:23:10;;;;;;;77.68;66.15;;;10.10;99.90;;;;;;5272376;28;20093;-66
2023/03/26 03:25:42;;;;;;;74.95;65.95;;;10.20;99.90;;;;;;5267924;28;20028;-66
2023/03/26 03:28:12;;;;;;;78.53;65.28;;;10.10;99.90;;;;;;5267991;28;20064;-66
2023/03/26 03:30:44;;;;;;;78.78;68.93;;;10.10;99.90;;;;;;5267634;28;20068;-66
2023/03/26 03:33:18;;;;;;;80.72;69.10;;;10.20;99.90;;;;;;5269517;28;20032;-65
2023/03/26 03:35:49;;;;;;;90.65;76.30;;;10.50;99.90;;;;;;5279949;28;20463;-65
2023/03/26 03:38:20;;;;;;;83.90;71.00;;;10.60;99.90;;;;;;5288882;28;20593;-65
2023/03/26 03:40:53;;;;;;;84.38;71.10;;;10.70;99.90;;;;;;5288795;28;20110;-66
2023/03/26 03:43:24;;;;;;;82.78;70.03;;;10.80;99.90;;;;;;5288671;28;20116;-66
2023/03/26 03:45:54;;;;;;;81.75;70.00;;;10.70;99.90;;;;;;5288800;28;20038;-65
2023/03/26 03:48:27;;;;;;;84.18;68.18;;;10.80;99.90;;;;;;5278865;28;20028;-65
2023/03/26 03:50:58;;;;;;;86.50;72.18;;;10.70;99.90;;;;;;5286989;28;20050;-66
2023/03/26 03:53:29;;;;;;;86.65;74.38;;;10.80;99.90;;;;;;5288860;28;20431;-65
2023/03/26 03:56:00;;;;;;;92.68;73.57;;;10.70;99.90;;;;;;5288690;28;20062;-66
2023/03/26 03:58:33;;;;;;;89.60;73.25;;;10.40;99.90;;;;;;5288731;28;20082;-66
2023/03/26 04:01:04;;;;;;;87.00;71.38;;;10.40;99.90;;;;;;5286681;28;20059;-65
2023/03/26 04:03:37;;;;;;;91.18;75.90;;;10.70;99.90;;;;;;5277581;28;20067;-65
2023/03/26 04:06:09;;;;;;;93.30;74.57;;;10.40;99.90;;;;;;5267405;28;20048;-66
2023/03/26 04:08:40;;;;;;;86.55;72.00;;;10.60;99.90;;;;;;5270189;28;20056;-65
2023/03/26 04:11:13;;;;;;;87.25;69.55;;;10.70;99.90;;;;;;5271261;28;20055;-66
2023/03/26 04:13:44;;;;;;;84.07;71.15;;;10.70;99.90;;;;;;5274174;28;20032;-66
2023/03/26 04:16:16;;;;;;;91.07;69.85;;;10.50;99.90;;;;;;5280262;28;20073;-66
2023/03/26 04:18:47;;;;;;;84.15;68.22;;;10.60;99.90;;;;;;5271188;28;20403;-66
2023/03/26 04:21:18;;;;;;;86.00;71.20;;;10.50;99.90;;;;;;5270952;28;20020;-65
2023/03/26 04:23:49;;;;;;;77.13;67.28;;;10.70;99.90;;;;;;5271066;28;20020;-66
2023/03/26 04:26:20;;;;;;;75.05;63.90;;;10.70;99.90;;;;;;5272763;28;20024;-66
2023/03/26 04:28:58;;;;;;;78.95;68.20;;;10.40;99.90;;;;;;5281204;28;20032;-66
2023/03/26 04:31:29;;;;;;;82.60;68.85;;;10.50;99.90;;;;;;5270919;28;20040;-65
2023/03/26 04:34:19;;;;;;;76.32;66.07;;;10.40;99.90;;;;;;5271124;28;20401;-65
2023/03/26 04:36:53;;;;;;;82.13;70.15;;;10.80;99.90;;;;;;5271038;28;20107;-66
2023/03/26 04:39:28;;;;;;;77.55;67.50;;;10.60;99.90;;;;;;5271012;28;20027;-65
2023/03/26 04:41:59;;;;;;;80.85;69.53;;;10.80;99.90;;;;;;5277503;28;20032;-66
2023/03/26 04:44:30;;;;;;;75.32;65.90;;;10.60;99.90;;;;;;5275441;28;20043;-66
2023/03/26 04:47:01;;;;;;;81.78;65.55;;;10.40;99.90;;;;;;5270705;28;20134;-66
2023/03/26 04:49:32;;;;;;;74.32;64.93;;;10.40;99.90;;;;;;5270609;28;20107;-66
2023/03/26 04:52:03;;;;;;;82.53;68.18;;;10.70;99.90;;;;;;5270386;28;20469;-66
2023/03/26 04:54:34;;;;;;;76.75;65.53;;;10.80;99.90;;;;;;5270467;28;20024;-66
2023/03/26 04:57:16;;;;;;;81.93;65.28;;;10.50;99.90;;;;;;5280221;28;20027;-66
2023/03/26 04:59:47;;;;;;;81.05;68.78;;;10.70;99.90;;;;;;5291693;28;20057;-66
2023/03/26 05:02:19;;;;;;;82.53;64.30;;;10.50;99.90;;;;;;5291350;28;20571;-65
2023/03/26 05:04:50;;;;;;;88.28;68.90;;;10.70;99.90;;;;;;5291496;28;20073;-66
2023/03/26 05:07:22;;;;;;;86.18;72.05;;;10.70;99.90;;;;;;5291344;28;20031;-66
2023/03/26 05:09:53;;;;;;;90.28;76.28;;;10.80;99.90;;;;;;5282740;28;20034;-66
2023/03/26 05:12:24;;;;;;;82.65;70.82;;;10.90;99.90;;;;;;5270069;28;20020;-65
2023/03/26 05:14:55;;;;;;;85.13;72.57;;;11.00;99.90;;;;;;5270153;28;20028;-65
2023/03/26 05:17:29;;;;;;;81.13;69.57;;;11.00;99.90;;;;;;5251982;28;20505;-66
2023/03/26 05:20:00;;;;;;;82.65;69.97;;;11.00;99.90;;;;;;5269910;28;20035;-66
2023/03/26 05:22:31;;;;;;;70.88;58.92;;;11.10;99.90;;;;;;5272488;28;20039;-66
2023/03/26 05:25:02;;;;;;;52.28;47.33;;;11.20;99.90;;;;;;5278839;28;20028;-66
2023/03/26 05:27:33;;;;;;;47.50;43.03;;;11.70;99.90;;;;;;5290845;28;20030;-65
2023/03/26 05:30:06;;;;;;;51.25;46.47;;;11.80;99.90;;;;;;5290740;28;20012;-66
2023/03/26 05:32:37;;;;;;;49.50;44.80;;;11.80;99.90;;;;;;5290680;28;20125;-66
2023/03/26 05:35:08;;;;;;;50.70;45.90;;;11.90;99.90;;;;;;5287534;28;20031;-66
2023/03/26 05:37:39;;;;;;;49.83;45.33;;;12.00;99.90;;;;;;5278650;28;20034;-66
2023/03/26 05:40:13;;;;;;;46.67;42.58;;;12.10;99.90;;;;;;5269579;28;20132;-66
2023/03/26 05:42:44;;;;;;;51.28;46.92;;;12.10;99.90;;;;;;5269514;28;20155;-66
2023/03/26 05:45:15;;;;;;;49.95;45.75;;;12.20;99.90;;;;;;5269587;28;20031;-66
2023/03/26 05:47:48;;;;;;;51.15;46.83;;;12.10;99.90;;;;;;5269681;28;20403;-66
2023/03/26 05:50:19;;;;;;;53.28;48.45;;;12.20;99.90;;;;;;5281451;28;20062;-66
2023/03/26 05:52:50;;;;;;;53.00;48.50;;;12.30;99.90;;;;;;5269328;28;20055;-66
2023/03/26 05:55:20;;;;;;;53.67;49.25;;;12.30;99.90;;;;;;5269274;28;20134;-66
2023/03/26 05:57:52;;;;;;;59.28;54.42;;;12.20;99.90;;;;;;5269380;28;20032;-66
2023/03/26 06:00:23;;;;;;;55.00;50.22;;;12.40;99.90;;;;;;5269096;28;20032;-66
2023/03/26 06:02:55;;;;;;;60.00;54.70;;;12.40;99.90;;;;;;5269693;28;20050;-65
2023/03/26 06:05:31;;;;;;;57.42;52.28;;;12.70;99.90;;;;;;5270836;28;20019;-66
2023/03/26 06:08:03;;;;;;;56.75;51.85;;;12.60;99.90;;;;;;5290205;28;20031;-66
2023/03/26 06:10:40;;;;;;;55.45;50.63;;;12.60;99.90;;;;;;5290099;28;20462;-66
2023/03/26 06:13:12;;;;;;;54.60;49.65;;;12.80;99.90;;;;;;5290040;28;20364;-66
2023/03/26 06:15:43;;;;;;;57.75;52.25;;;12.80;99.90;;;;;;5290088;28;20106;-66
2023/03/26 06:18:14;;;;;;;55.38;50.47;;;12.70;99.90;;;;;;5261781;28;20142;-66
2023/03/26 06:20:45;;;;;;;55.40;50.42;;;12.80;99.90;;;;;;5287641;28;20032;-66
2023/03/26 06:23:16;;;;;;;54.72;49.70;;;12.70;99.90;;;;;;5289701;28;20576;-66
2023/03/26 06:25:48;;;;;;;87.75;79.25;;;13.00;99.90;;;;;;5283746;28;20035;-66
2023/03/26 06:28:19;;;;;;;81.35;73.65;;;12.90;99.90;;;;;;5289268;28;20023;-66
2023/03/26 06:30:50;;;;;;;62.83;56.75;;;12.90;99.90;;;;;;5276453;28;20062;-66
2023/03/26 06:33:21;;;;;;;56.15;51.25;;;13.10;99.90;;;;;;5289578;28;20020;-66
2023/03/26 06:35:51;;;;;;;61.35;56.08;;;13.10;99.90;;;;;;5289337;28;20058;-66
2023/03/26 06:38:22;;;;;;;58.05;52.80;;;13.10;99.90;;;;;;5289543;28;20458;-65
2023/03/26 06:40:53;;;;;;;56.40;51.45;;;13.10;99.90;;;;;;5289367;28;20066;-66
2023/03/26 06:43:24;;;;;;;56.70;51.47;;;13.10;99.90;;;;;;5277479;28;20064;-66
2023/03/26 06:45:55;;;;;;;57.95;52.85;;;13.20;99.90;;;;;;5268261;28;20036;-66
2023/03/26 06:48:26;;;;;;;55.42;49.90;;;13.20;99.90;;;;;;5268424;28;20024;-65
2023/03/26 06:50:57;;;;;;;57.60;52.42;;;13.20;99.90;;;;;;5268135;28;20115;-66
2023/03/26 06:53:28;;;;;;;57.38;52.20;;;13.10;99.90;;;;;;5268224;28;20020;-66
2023/03/26 06:55:58;;;;;;;54.58;49.88;;;13.20;99.90;;;;;;5269844;28;20027;-65
2023/03/26 06:58:29;;;;;;;54.75;50.03;;;13.30;99.90;;;;;;5278886;28;20385;-65
2023/03/26 07:01:00;;;;;;;52.35;47.55;;;13.30;99.90;;;;;;5289091;28;20036;-65
2023/03/26 07:03:31;;;;;;;52.28;47.63;;;13.30;99.90;;;;;;5289174;28;20024;-66
2023/03/26 07:06:02;;;;;;;56.40;51.40;;;13.20;99.90;;;;;;5289221;28;20443;-66
2023/03/26 07:08:33;;;;;;;57.78;52.53;;;13.30;99.90;;;;;;5288347;28;20028;-66
2023/03/26 07:11:04;;;;;;;53.95;49.15;;;13.30;99.90;;;;;;5279189;28;20043;-66
2023/03/26 07:13:36;;;;;;;57.33;52.25;;;13.20;99.90;;;;;;5267889;28;20024;-66
2023/03/26 07:16:07;;;;;;;56.85;51.42;;;13.20;99.90;;;;;;5268079;28;20031;-66
2023/03/26 07:18:38;;;;;;;55.33;50.15;;;13.30;99.90;;;;;;5268134;28;20074;-66
2023/03/26 07:21:10;;;;;;;56.00;50.83;;;13.20;99.90;;;;;;5269369;28;20386;-66
2023/03/26 07:23:41;;;;;;;57.60;52.63;;;13.20;99.90;;;;;;5278040;28;20051;-66
2023/03/26 07:26:45;;;;;;;58.45;53.00;;;13.20;99.90;;;;;;5288848;28;20467;-67
2023/03/26 07:29:37;;;;;;;58.92;53.30;;;13.30;99.90;;;;;;5288994;28;20027;-66
2023/03/26 07:32:31;;;;;;;62.30;56.55;;;13.30;99.90;;;;;;5288616;28;20082;-65
2023/03/26 07:35:08;;;;;;;62.45;56.58;;;13.30;99.90;;;;;;5288778;28;20027;-66
2023/03/26 07:38:08;;;;;;;63.67;57.88;;;13.10;99.90;;;;;;5264363;28;20035;-66
2023/03/26 07:40:51;;;;;;;64.60;58.45;;;13.10;99.90;;;;;;5267763;28;20111;-64
2023/03/26 07:43:38;;;;;;;66.03;59.60;;;13.10;99.90;;;;;;5270058;28;20429;-66
2023/03/26 07:46:13;;;;;;;72.05;65.18;;;13.20;99.90;;;;;;5277141;28;20024;-65
2023/03/26 07:48:48;;;;;;;72.70;65.15;;;13.00;99.90;;;;;;5283301;28;20382;-65
2023/03/26 07:51:22;;;;;;;73.15;66.45;;;13.00;99.90;;;;;;5283004;28;20027;-65
2023/03/26 07:53:54;;;;;;;74.88;67.70;;;13.10;99.90;;;;;;5271697;28;20493;-65
2023/03/26 07:56:31;;;;;;;70.65;63.85;;;13.20;99.90;;;;;;5271693;28;20070;-65
2023/03/26 07:59:35;;;;;;;71.22;64.47;;;13.20;99.90;;;;;;5271651;28;20048;-65
2023/03/26 08:02:44;;;;;;;80.38;72.38;;;13.10;99.90;;;;;;5270672;28;20499;-65
2023/03/26 08:05:37;;;;;;;73.70;66.80;;;13.00;99.90;;;;;;5282370;28;20030;-64
2023/03/26 08:08:23;;;;;;;73.30;66.43;;;13.20;99.90;;;;;;5292505;28;20542;-64
2023/03/26 08:11:22;;;;;;;71.50;64.63;;;13.10;99.90;;;;;;5288907;28;20036;-64
2023/03/26 08:14:23;;;;;;;71.53;64.55;;;13.30;99.90;;;;;;5237548;28;20095;-64
2023/03/26 08:17:13;;;;;;;73.03;66.07;;;13.30;99.90;;;;;;5280060;28;20043;-65
2023/03/26 08:19:56;;;;;;;68.65;62.42;;;13.30;99.90;;;;;;5285226;28;20031;-66
2023/03/26 08:22:33;;;;;;;70.90;64.45;;;13.30;99.90;;;;;;5271319;28;20036;-65
2023/03/26 08:25:26;;;;;;;71.80;64.70;;;13.20;99.90;;;;;;5271598;28;20016;-65
2023/03/26 08:28:31;;;;;;;91.70;83.25;;;13.40;99.90;;;;;;5271405;28;20024;-65
2023/03/26 08:31:04;;;;;;;77.95;70.93;;;13.30;99.90;;;;;;5270892;28;20051;-65
2023/03/26 08:33:46;;;;;;;71.72;65.43;;;13.30;99.90;;;;;;5270976;28;20024;-66
2023/03/26 08:36:16;;;;;;;71.80;65.25;;;13.40;99.90;;;;;;5271117;28;20028;-65
2023/03/26 08:38:49;;;;;;;67.50;61.20;;;13.60;99.90;;;;;;5270919;28;20073;-65
2023/03/26 08:41:27;;;;;;;65.50;59.50;;;13.60;99.90;;;;;;5285492;28;20490;-65
2023/03/26 08:44:01;;;;;;;68.03;61.70;;;13.60;99.90;;;;;;5291758;28;20073;-65
2023/03/26 08:47:09;;;;;;;69.53;62.60;;;13.50;99.90;;;;;;5291875;28;20484;-65
2023/03/26 08:49:51;;;;;;;89.53;80.68;;;13.40;99.90;;;;;;5291677;28;20085;-65
2023/03/26 08:52:40;;;;;;;77.88;70.32;;;13.50;99.90;;;;;;5291792;28;20494;-65
2023/03/26 08:55:23;;;;;;;76.05;68.55;;;13.50;99.90;;;;;;5291191;28;20038;-65
2023/03/26 08:58:32;;;;;;;71.85;65.15;;;13.60;99.90;;;;;;5291648;28;20024;-66
2023/03/26 09:01:27;;;;;;;71.85;65.07;;;13.60;99.90;;;;;;5291433;28;20105;-65
2023/03/26 09:04:27;;;;;;;84.05;75.85;;;13.50;99.90;;;;;;5291509;28;20016;-65
2023/03/26 09:07:49;;;;;;;79.97;72.60;;;13.30;99.90;;;;;;5291612;28;20063;-66
2023/03/26 09:10:40;;;;;;;77.65;70.57;;;13.30;99.90;;;;;;5248551;28;20114;-66
2023/03/26 09:13:49;;;;;;;84.63;76.30;;;13.30;99.90;;;;;;5290142;28;20145;-66
2023/03/26 09:16:44;;;;;;;82.88;75.07;;;13.20;99.90;;;;;;5280712;28;20543;-66
2023/03/26 09:19:45;;;;;;;82.55;74.53;;;13.20;99.90;;;;;;5270032;28;20051;-66
2023/03/26 09:22:46;;;;;;;80.80;73.25;;;13.30;99.90;;;;;;5269860;28;20047;-65
2023/03/26 09:25:48;;;;;;;79.75;72.13;;;13.00;99.90;;;;;;5290976;28;20371;-66
2023/03/26 09:28:35;;;;;;;77.55;70.07;;;13.10;99.90;;;;;;5290978;28;20066;-66
2023/03/26 09:31:12;;;;;;;85.30;76.82;;;13.20;99.90;;;;;;5290743;28;20055;-65
2023/03/26 09:34:07;;;;;;;76.30;68.50;;;13.00;99.90;;;;;;5291037;28;20035;-64
2023/03/26 09:37:10;;;;;;;75.43;67.85;;;13.20;99.90;;;;;;5278045;28;20482;-65
2023/03/26 09:39:41;;;;;;;84.40;76.07;;;13.00;99.90;;;;;;5281019;28;20085;-66
2023/03/26 09:42:34;;;;;;;77.85;70.18;;;13.00;99.90;;;;;;5276960;28;20043;-66
2023/03/26 09:45:41;;;;;;;79.45;71.43;;;13.20;99.90;;;;;;5278553;28;20024;-65
2023/03/26 09:48:52;;;;;;;83.10;74.68;;;13.20;99.90;;;;;;5276712;28;20020;-65
2023/03/26 09:51:38;;;;;;;83.30;74.50;;;13.40;99.90;;;;;;5278119;28;20098;-65
2023/03/26 09:54:38;;;;;;;76.35;68.78;;;13.60;99.90;;;;;;5278699;28;20031;-65
2023/03/26 09:57:52;;;;;;;74.57;67.22;;;13.40;99.90;;;;;;5278881;28;20036;-65
2023/03/26 10:00:32;;;;;;;80.93;72.75;;;13.70;99.90;;;;;;5273680;28;20535;-65
2023/03/26 10:03:17;;;;;;;82.70;74.35;;;13.90;99.90;;;;;;5283939;28;20440;-65
2023/03/26 10:06:23;;;;;;;90.45;80.82;;;13.90;99.90;;;;;;5277455;28;20444;-64
2023/03/26 10:09:18;;;;;;;179.32;133.88;;;14.00;99.90;;;;;;5278212;28;20467;-66
2023/03/26 10:12:41;;;;;;;333.83;258.88;;;14.00;99.90;;;;;;5276141;28;20023;-66
2023/03/26 10:15:18;;;;;;;154.45;125.13;;;13.80;99.90;;;;;;5172008;28;20433;-65
2023/03/26 10:18:13;;;;;;;75.85;68.57;;;13.80;99.90;;;;;;5264507;28;20039;-65
2023/03/26 10:20:51;;;;;;;82.93;74.40;;;13.70;99.90;;;;;;5275808;28;20027;-66
2023/03/26 10:23:29;;;;;;;78.40;70.43;;;13.70;99.90;;;;;;5277328;28;20547;-66
2023/03/26 10:26:35;;;;;;;71.75;64.53;;;13.80;99.90;;;;;;5284705;28;20106;-67
2023/03/26 10:29:25;;;;;;;74.95;67.40;;;13.60;99.90;;;;;;5279668;28;20093;-66
2023/03/26 10:32:04;;;;;;;80.57;72.30;;;13.60;99.90;;;;;;5275707;28;20074;-66
2023/03/26 10:34:55;;;;;;;69.90;63.38;;;13.50;99.90;;;;;;5280959;28;20265;-64
2023/03/26 10:37:54;;;;;;;64.60;58.40;;;13.70;99.90;;;;;;5276885;28;20028;-64
2023/03/26 10:40:51;;;;;;;61.30;55.72;;;13.80;99.90;;;;;;5276272;28;20027;-65
2023/03/26 10:43:47;;;;;;;52.55;48.13;;;13.60;99.90;;;;;;5284425;28;20047;-64
2023/03/26 10:46:21;;;;;;;58.55;53.33;;;13.50;99.90;;;;;;5273033;28;20050;-64
2023/03/26 10:49:15;;;;;;;61.45;56.58;;;13.90;99.90;;;;;;5274402;28;20115;-65
2023/03/26 10:52:03;;;;;;;51.72;47.28;;;14.00;99.90;;;;;;5278341;28;20478;-66
2023/03/26 10:54:43;;;;;;;52.60;47.92;;;14.40;99.90;;;;;;5276256;28;20449;-65
2023/03/26 10:57:38;;;;;;;53.63;48.83;;;14.20;99.90;;;;;;5275607;28;20043;-66
2023/03/26 11:00:28;;;;;;;58.67;52.95;;;14.10;99.90;;;;;;5259867;28;20020;-64
2023/03/26 11:03:28;;;;;;;56.30;51.00;;;14.00;99.90;;;;;;5277389;28;20130;-66
2023/03/26 11:06:37;;;;;;;51.40;47.00;;;14.00;99.90;;;;;;5267978;28;20028;-65
2023/03/26 11:09:23;;;;;;;62.70;57.42;;;14.10;99.90;;;;;;5260841;28;20032;-66
2023/03/26 11:12:16;;;;;;;50.90;46.55;;;14.20;99.90;;;;;;5271424;28;20066;-65
2023/03/26 11:15:16;;;;;;;44.85;41.03;;;14.20;99.90;;;;;;5267761;28;20077;-65
2023/03/26 11:18:06;;;;;;;43.25;39.85;;;14.10;99.90;;;;;;5267573;28;20028;-66
2023/03/26 11:20:40;;;;;;;45.50;42.10;;;14.10;99.90;;;;;;5267128;28;20447;-65
2023/03/26 11:23:23;;;;;;;40.92;37.85;;;14.10;99.90;;;;;;5267099;28;20044;-65
2023/03/26 11:26:13;;;;;;;40.42;37.30;;;14.30;99.90;;;;;;5249952;28;20496;-65
2023/03/26 11:28:58;;;;;;;42.47;39.13;;;14.30;99.90;;;;;;5267961;28;20028;-66
2023/03/26 11:31:57;;;;;;;38.47;35.58;;;14.30;99.90;;;;;;5267289;28;20048;-65
2023/03/26 11:34:40;;;;;;;39.67;36.53;;;14.40;99.90;;;;;;5267533;28;20537;-65
2023/03/26 11:37:19;;;;;;;41.25;37.80;;;14.50;99.90;;;;;;5267893;28;20073;-65
2023/03/26 11:39:53;;;;;;;39.55;36.55;;;14.60;99.90;;;;;;5267819;28;20033;-64
2023/03/26 11:42:24;;;;;;;38.20;35.40;;;14.70;99.90;;;;;;5267587;28;20032;-64
2023/03/26 11:45:00;;;;;;;37.20;34.40;;;14.80;99.90;;;;;;5267790;28;20059;-66
2023/03/26 11:47:41;;;;;;;37.17;34.17;;;15.00;99.90;;;;;;5267590;28;20069;-65
2023/03/26 11:50:27;;;;;;;35.20;32.58;;;15.20;99.90;;;;;;5267519;28;20474;-65
2023/03/26 11:53:09;;;;;;;33.58;30.75;;;15.80;99.90;;;;;;5267650;28;20367;-65
2023/03/26 11:55:45;;;;;;;32.55;29.98;;;16.20;99.90;;;;;;5267653;28;20379;-65
2023/03/26 11:58:30;;;;;;;32.78;30.17;;;15.90;99.90;;;;;;5267701;28;20621;-66
2023/03/26 12:01:14;;;;;;;38.17;35.00;;;16.50;99.90;;;;;;5267406;28;20075;-66
2023/03/26 12:03:57;;;;;;;39.47;36.28;;;16.20;99.90;;;;;;5267563;28;20031;-65
2023/03/26 12:06:28;;;;;;;39.38;36.30;;;16.00;99.90;;;;;;5267995;28;20544;-65
2023/03/26 12:08:59;;;;;;;46.15;41.85;;;16.30;99.90;;;;;;5267621;28;20055;-65
2023/03/26 12:11:33;;;;;;;45.88;41.63;;;16.50;99.90;;;;;;5267552;28;20115;-66
2023/03/26 12:14:04;;;;;;;28.13;25.65;;;17.10;99.90;;;;;;5267600;28;20020;-66
2023/03/26 12:16:35;;;;;;;25.98;23.70;;;17.10;99.90;;;;;;5267356;28;20077;-66
2023/03/26 12:19:18;;;;;;;35.20;32.45;;;16.60;99.90;;;;;;5267269;28;20056;-65
2023/03/26 12:21:51;;;;;;;29.73;27.17;;;16.20;99.90;;;;;;5267253;28;20115;-65
2023/03/26 12:24:34;;;;;;;28.88;26.70;;;16.90;99.90;;;;;;5267246;28;20025;-65
2023/03/26 12:27:27;;;;;;;125.25;117.50;;;16.90;99.90;;;;;;5267396;28;20035;-64
2023/03/26 12:30:08;;;;;;;33.65;31.15;;;16.40;99.90;;;;;;5270383;28;20072;-65
2023/03/26 12:32:43;;;;;;;23.80;21.80;;;16.70;99.90;;;;;;5270954;28;20100;-65
2023/03/26 12:35:25;;;;;;;24.55;22.55;;;17.30;99.90;;;;;;5271011;28;20462;-64
2023/03/26 12:38:31;;;;;;;22.63;20.63;;;17.40;99.90;;;;;;5271052;28;20031;-66
2023/03/26 12:41:11;;;;;;;22.98;21.08;;;17.80;99.90;;;;;;5270801;28;20020;-66
2023/03/26 12:43:48;;;;;;;21.20;19.42;;;17.90;99.90;;;;;;5270883;28;20450;-66
2023/03/26 12:46:23;;;;;;;21.98;20.08;;;18.30;99.90;;;;;;5270866;28;20032;-66
2023/03/26 12:48:58;;;;;;;22.45;20.20;;;17.70;99.90;;;;;;5270703;28;20028;-65
2023/03/26 12:51:40;;;;;;;25.17;22.88;;;18.30;99.90;;;;;;5271361;28;20028;-65
2023/03/26 12:54:23;;;;;;;25.92;23.77;;;18.30;99.90;;;;;;5275999;28;20018;-66
2023/03/26 12:57:19;;;;;;;22.98;20.98;;;18.20;99.90;;;;;;5274313;28;20028;-65
2023/03/26 13:00:12;;;;;;;29.13;26.23;;;17.80;99.90;;;;;;5270539;28;20028;-65
2023/03/26 13:03:01;;;;;;;43.75;40.28;;;17.60;99.90;;;;;;5270317;28;20051;-65
2023/03/26 13:05:46;;;;;;;28.50;26.13;;;17.70;99.90;;;;;;5270452;28;20047;-65
2023/03/26 13:08:26;;;;;;;37.35;34.25;;;17.30;99.90;;;;;;5270468;28;20479;-66
2023/03/26 13:11:06;;;;;;;28.95;26.23;;;17.40;99.90;;;;;;5270490;28;20081;-66
2023/03/26 13:13:51;;;;;;;34.17;31.02;;;17.80;99.90;;;;;;5270221;28;20031;-65
2023/03/26 13:16:33;;;;;;;37.72;34.63;;;17.30;99.90;;;;;;5270185;28;20077;-65
2023/03/26 13:19:28;;;;;;;34.22;31.52;;;17.20;99.90;;;;;;5270026;28;20391;-65
2023/03/26 13:22:11;;;;;;;28.88;26.33;;;17.70;99.90;;;;;;5270129;28;20086;-64
2023/03/26 13:24:42;;;;;;;32.33;29.33;;;18.50;99.90;;;;;;5270453;28;20030;-65
2023/03/26 13:27:34;;;;;;;23.85;21.52;;;18.20;99.90;;;;;;5270144;28;20020;-65
2023/03/26 13:30:24;;;;;;;49.50;45.83;;;18.40;99.90;;;;;;5269829;28;20460;-65